Time;durP1;ratioP1;P1;durP2;ratioP2;P2;SDS_P1;SDS_P2;PMS_P1;PMS_P2;Temp;Humidity;BMP_temperature;BMP_pressure;BME280_temperature;BME280_humidity;BME280_pressure;Samples;Min_cycle;Max_cycle;Signal;HPM_P1;HPM_P2
2022/06/23 00:02:23;;;;;;;8.97;6.33;;;;;;;22.53;67.54;94574.84;5112906;28;20893;-78
2022/06/23 00:04:53;;;;;;;11.37;7.47;;;;;;;22.51;67.50;94576.94;5113074;28;20439;-78
2022/06/23 00:07:24;;;;;;;12.17;8.17;;;;;;;22.43;67.94;94589.72;5112712;28;20454;-78
2022/06/23 00:09:52;;;;;;;13.10;6.73;;;;;;;22.37;68.01;94586.03;5113299;28;20444;-78
2022/06/23 00:12:29;;;;;;;16.70;7.80;;;;;;;22.39;67.75;94583.16;5112642;28;20439;-78
2022/06/23 00:15:12;;;;;;;10.70;6.67;;;;;;;22.41;67.75;94581.09;5093716;28;20432;-78
2022/06/23 00:17:42;;;;;;;9.20;6.57;;;;;;;22.39;67.79;94577.81;5113060;28;20505;-78
2022/06/23 00:20:14;;;;;;;8.60;6.60;;;;;;;22.38;67.56;94586.84;5116872;28;20532;-78
2022/06/23 00:22:44;;;;;;;17.17;6.40;;;;;;;22.38;67.94;94576.16;5116921;28;20483;-78
2022/06/23 00:25:26;;;;;;;9.80;6.80;;;;;;;22.35;67.82;94588.09;5116700;28;20435;-78
2022/06/23 00:27:55;;;;;;;12.63;6.53;;;;;;;22.38;67.71;94589.53;5116429;28;20450;-79
2022/06/23 00:30:25;;;;;;;11.63;6.93;;;;;;;22.38;67.80;94592.19;5116689;28;20443;-79
2022/06/23 00:32:53;;;;;;;8.43;6.47;;;;;;;22.39;67.94;94581.28;5116683;28;20454;-78
2022/06/23 00:35:20;;;;;;;11.60;6.80;;;;;;;22.41;67.84;94581.09;5116392;28;20450;-79
2022/06/23 00:37:49;;;;;;;13.17;6.30;;;;;;;22.40;67.50;94574.91;5116539;28;20530;-79
2022/06/23 00:40:21;;;;;;;14.47;6.40;;;;;;;22.36;67.81;94573.69;5116356;28;20472;-79
2022/06/23 00:42:52;;;;;;;7.10;6.10;;;;;;;22.32;67.21;94563.63;5116634;28;20566;-78
2022/06/23 00:45:29;;;;;;;9.63;6.30;;;;;;;22.25;67.41;94532.38;5116302;28;20825;-78
2022/06/23 00:48:03;;;;;;;11.60;6.70;;;;;;;22.17;67.62;94521.91;5116278;28;20439;-78
2022/06/23 00:50:35;;;;;;;12.90;7.10;;;;;;;22.14;67.95;94521.53;5116135;28;20840;-78
2022/06/23 00:53:07;;;;;;;16.73;7.30;;;;;;;22.12;68.62;94535.09;5116127;28;20459;-78
2022/06/23 00:55:44;;;;;;;13.77;6.97;;;;;;;22.07;68.49;94556.28;5115849;28;20441;-79
2022/06/23 00:58:22;;;;;;;12.07;7.57;;;;;;;22.06;68.49;94546.63;5116176;28;20431;-78
2022/06/23 01:00:53;;;;;;;10.23;7.40;;;;;;;22.06;68.36;94554.66;5116134;28;20445;-78
2022/06/23 01:03:28;;;;;;;7.43;6.40;;;;;;;22.06;68.48;94568.00;5116048;28;20455;-79
2022/06/23 01:06:00;;;;;;;12.60;6.67;;;;;;;22.06;68.52;94559.19;5115985;28;20454;-79
2022/06/23 01:08:32;;;;;;;9.87;6.60;;;;;;;22.01;68.50;94559.78;5116258;28;20455;-78
2022/06/23 01:11:03;;;;;;;11.50;6.37;;;;;;;21.95;69.16;94553.38;5115393;28;20817;-78
2022/06/23 01:13:37;;;;;;;12.53;7.50;;;;;;;21.92;69.34;94544.97;5115716;28;20436;-78
2022/06/23 01:16:11;;;;;;;12.30;6.40;;;;;;;21.85;69.54;94550.34;5115783;28;20526;-78
2022/06/23 01:18:42;;;;;;;9.33;5.83;;;;;;;21.84;69.68;94547.88;5080570;28;20455;-79
2022/06/23 01:21:17;;;;;;;11.70;7.50;;;;;;;21.78;69.81;94543.34;5115404;28;20999;-79
2022/06/23 01:24:05;;;;;;;11.80;7.10;;;;;;;21.80;70.04;94536.78;5115311;28;20951;-79
2022/06/23 01:26:49;;;;;;;11.03;6.17;;;;;;;21.79;69.66;94535.13;5115589;28;20443;-79
2022/06/23 01:29:24;;;;;;;12.50;6.53;;;;;;;21.76;69.57;94519.53;5115242;28;20454;-79
2022/06/23 01:31:55;;;;;;;15.47;7.23;;;;;;;21.81;69.26;94526.91;5115097;28;20446;-79
2022/06/23 01:34:30;;;;;;;10.10;7.17;;;;;;;21.77;69.37;94529.19;5115270;28;20432;-79
2022/06/23 01:37:02;;;;;;;11.97;5.80;;;;;;;21.79;69.39;94527.13;5115504;28;20439;-79
2022/06/23 01:39:39;;;;;;;9.97;6.53;;;;;;;21.78;69.49;94532.69;5115183;28;20448;-79
2022/06/23 01:42:19;;;;;;;7.93;5.70;;;;;;;21.74;69.73;94528.78;5115028;28;20527;-79
2022/06/23 01:44:52;;;;;;;9.37;7.40;;;;;;;21.67;69.89;94523.41;5079208;28;20453;-79
2022/06/23 01:47:24;;;;;;;14.50;6.90;;;;;;;21.62;69.96;94513.38;5114987;28;20451;-79
2022/06/23 01:49:57;;;;;;;12.83;6.77;;;;;;;21.62;70.19;94518.72;5115023;28;20450;-79
2022/06/23 01:52:24;;;;;;;15.27;6.90;;;;;;;21.62;70.32;94513.38;5115121;28;20961;-79
2022/06/23 01:54:57;;;;;;;13.63;6.70;;;;;;;21.59;70.36;94510.28;5114804;28;20774;-79
2022/06/23 01:57:31;;;;;;;8.30;6.83;;;;;;;21.59;70.33;94516.44;5115260;28;20866;-79
2022/06/23 02:00:08;;;;;;;10.97;5.90;;;;;;;21.57;70.47;94510.50;5114564;28;20442;-79
2022/06/23 02:02:49;;;;;;;12.37;7.03;;;;;;;21.46;70.43;94503.13;5114681;28;20482;-79
2022/06/23 02:05:28;;;;;;;15.53;8.87;;;;;;;21.47;70.40;94498.59;5114813;28;20447;-79
2022/06/23 02:08:02;;;;;;;14.80;6.10;;;;;;;21.48;70.58;94498.41;5115123;28;20445;-79
2022/06/23 02:10:35;;;;;;;16.23;7.73;;;;;;;21.43;70.78;94495.53;5115064;28;20440;-79
2022/06/23 02:13:25;;;;;;;14.17;7.43;;;;;;;21.37;71.24;94492.84;5095747;28;20443;-79
2022/06/23 02:16:03;;;;;;;8.30;6.63;;;;;;;21.32;71.24;94501.47;5114371;28;20512;-79
2022/06/23 02:18:34;;;;;;;18.80;7.83;;;;;;;21.26;71.57;94499.63;5114622;28;20488;-79
2022/06/23 02:21:20;;;;;;;11.67;7.23;;;;;;;21.22;71.47;94495.69;5114399;28;20454;-79
2022/06/23 02:23:52;;;;;;;9.40;7.07;;;;;;;21.21;71.57;94494.88;5114231;28;20447;-79
2022/06/23 02:26:23;;;;;;;11.40;7.63;;;;;;;21.20;71.74;94495.09;5095228;28;20459;-79
2022/06/23 02:29:00;;;;;;;11.47;7.57;;;;;;;21.15;71.74;94489.53;5114497;28;20454;-79
2022/06/23 02:31:39;;;;;;;14.70;7.87;;;;;;;21.21;71.89;94488.72;5114105;28;20450;-79
2022/06/23 02:34:16;;;;;;;8.27;6.63;;;;;;;21.15;71.88;94494.88;5114187;28;21003;-79
2022/06/23 02:37:16;;;;;;;11.30;7.60;;;;;;;21.17;72.05;94495.50;5114067;28;20447;-79
2022/06/23 02:39:48;;;;;;;10.33;7.73;;;;;;;21.12;71.85;94495.28;5113959;28;20450;-78
2022/06/23 02:42:25;;;;;;;11.57;7.10;;;;;;;21.18;72.17;94500.63;5113205;27;20487;-79
2022/06/23 02:45:21;;;;;;;7.40;6.50;;;;;;;21.20;71.92;94505.75;5113914;28;20443;-79
2022/06/23 02:48:05;;;;;;;11.67;7.57;;;;;;;21.22;71.56;94509.03;5114483;28;20548;-79
2022/06/23 02:50:50;;;;;;;11.07;6.70;;;;;;;21.20;71.49;94505.75;5113693;28;20435;-79
2022/06/23 02:53:31;;;;;;;13.83;6.87;;;;;;;21.19;71.52;94501.44;5113829;28;20431;-79
2022/06/23 02:56:18;;;;;;;15.83;8.53;;;;;;;21.18;71.67;94508.63;5113890;28;20443;-79
2022/06/23 02:58:54;;;;;;;12.63;7.53;;;;;;;21.19;71.50;94504.13;5113586;28;20447;-79
2022/06/23 03:01:27;;;;;;;11.30;7.90;;;;;;;21.17;71.70;94503.50;5113842;28;20454;-79
2022/06/23 03:04:01;;;;;;;9.33;6.63;;;;;;;21.20;72.13;94511.09;5113414;28;20446;-79
2022/06/23 03:06:37;;;;;;;10.90;6.47;;;;;;;21.23;71.70;94510.69;5113607;28;20443;-79
2022/06/23 03:09:09;;;;;;;11.90;7.07;;;;;;;21.26;72.18;94518.31;5113753;28;20453;-79
2022/06/23 03:11:54;;;;;;;12.40;8.10;;;;;;;21.26;71.71;94520.97;5113272;28;20443;-79
2022/06/23 03:14:31;;;;;;;13.73;8.27;;;;;;;21.23;71.77;94524.03;5113783;28;20447;-79
2022/06/23 03:17:03;;;;;;;13.00;7.53;;;;;;;21.24;71.90;94520.38;5113287;28;20439;-79
2022/06/23 03:19:38;;;;;;;12.50;6.80;;;;;;;21.24;72.21;94520.38;5113250;28;20486;-79
2022/06/23 03:22:11;;;;;;;12.40;7.40;;;;;;;21.20;72.59;94527.94;5113229;28;20492;-79
2022/06/23 03:24:45;;;;;;;14.27;7.80;;;;;;;21.24;72.40;94520.38;5113289;28;20950;-79
2022/06/23 03:27:19;;;;;;;15.07;6.57;;;;;;;21.21;72.19;94516.22;5113285;28;20450;-79
2022/06/23 03:29:52;;;;;;;11.67;7.47;;;;;;;21.22;72.39;94517.88;5113465;28;20439;-79
2022/06/23 03:32:25;;;;;;;11.47;8.20;;;;;;;21.25;72.37;94514.00;5113165;28;20443;-78
2022/06/23 03:35:00;;;;;;;11.93;7.20;;;;;;;21.22;72.38;94506.38;5113461;28;20453;-79
2022/06/23 03:37:37;;;;;;;11.20;8.37;;;;;;;21.31;72.23;94508.66;5113750;28;20431;-79
2022/06/23 03:43:08;;;;;;;13.03;8.50;;;;;;;21.49;72.01;94497.38;5112783;28;20966;-79
2022/06/23 03:45:42;;;;;;;11.83;7.50;;;;;;;21.57;71.89;94502.50;5112893;28;20485;-79
2022/06/23 03:48:16;;;;;;;10.83;7.80;;;;;;;21.63;71.58;94508.84;5112871;28;20462;-79
2022/06/23 03:50:50;;;;;;;14.67;7.70;;;;;;;21.69;71.77;94502.69;5112805;28;20446;-79
2022/06/23 03:53:23;;;;;;;12.17;7.70;;;;;;;21.83;71.85;94498.97;5114494;28;20427;-79
2022/06/23 03:55:54;;;;;;;13.60;7.90;;;;;;;22.00;71.65;94502.03;5117261;28;20442;-79
2022/06/23 03:58:25;;;;;;;11.20;7.57;;;;;;;22.24;71.64;94506.69;5117127;28;20439;-79
2022/06/23 04:00:59;;;;;;;11.93;7.00;;;;;;;22.46;70.96;94515.25;5117343;28;20444;-79
2022/06/23 04:03:32;;;;;;;9.70;7.33;;;;;;;22.69;69.86;94513.91;5117273;28;20827;-79
2022/06/23 04:06:17;;;;;;;11.90;7.37;;;;;;;22.91;67.67;94509.91;5116860;28;20451;-79
2022/06/23 04:08:48;;;;;;;9.10;7.60;;;;;;;23.11;67.06;94507.09;5117145;28;20427;-79
2022/06/23 04:14:09;;;;;;;15.70;8.33;;;;;;;23.62;65.82;94520.31;5117016;28;20960;-79
2022/06/23 04:16:37;;;;;;;12.80;8.23;;;;;;;23.83;65.61;94518.28;5116693;28;20439;-79
2022/06/23 04:19:09;;;;;;;12.40;7.20;;;;;;;24.07;63.86;94528.97;5116912;28;20436;-79
2022/06/23 04:21:44;;;;;;;12.43;7.70;;;;;;;24.31;62.48;94527.31;5116730;28;20448;-79
2022/06/23 04:24:16;;;;;;;14.30;7.17;;;;;;;24.50;61.57;94525.44;5116831;28;20459;-79
2022/06/23 04:26:45;;;;;;;13.57;8.10;;;;;;;24.58;61.42;94527.00;5116492;28;20818;-79
2022/06/23 04:29:18;;;;;;;15.70;7.60;;;;;;;24.63;61.23;94525.28;5097481;28;20439;-79
2022/06/23 04:31:52;;;;;;;8.43;7.43;;;;;;;24.80;60.98;94538.06;5116937;28;20450;-79
2022/06/23 04:34:23;;;;;;;19.07;9.13;;;;;;;25.05;60.74;94535.28;5116551;28;20453;-80
2022/06/23 04:36:52;;;;;;;10.27;7.70;;;;;;;25.09;60.96;94515.81;5116328;28;20451;-79
2022/06/23 04:39:26;;;;;;;10.07;7.90;;;;;;;24.79;62.47;94515.78;5116381;28;20447;-79
2022/06/23 04:42:00;;;;;;;10.73;8.87;;;;;;;24.75;62.42;94516.47;5116325;28;20466;-79
2022/06/23 04:44:31;;;;;;;14.27;9.33;;;;;;;24.81;62.40;94518.22;5116335;28;20945;-80
2022/06/23 04:47:02;;;;;;;15.23;10.00;;;;;;;24.93;62.51;94516.44;5116272;28;20434;-79
2022/06/23 04:49:35;;;;;;;15.73;9.00;;;;;;;25.11;61.79;94524.44;5116250;28;20436;-79
2022/06/23 04:52:13;;;;;;;13.33;9.73;;;;;;;25.07;61.25;94515.22;5116306;28;20898;-79
2022/06/23 04:54:48;;;;;;;12.37;9.03;;;;;;;25.06;61.09;94508.22;5116313;28;20888;-80
2022/06/23 04:57:19;;;;;;;12.40;8.63;;;;;;;25.17;61.68;94512.00;5116401;28;20451;-79
2022/06/23 04:59:50;;;;;;;18.07;9.33;;;;;;;25.45;59.92;94525.63;5115948;28;20942;-80
2022/06/23 05:02:24;;;;;;;17.57;8.47;;;;;;;25.51;59.95;94518.50;5116041;28;20478;-79
2022/06/23 05:05:00;;;;;;;12.97;10.10;;;;;;;25.71;60.25;94513.63;5115716;28;20462;-79
2022/06/23 05:07:32;;;;;;;16.40;9.97;;;;;;;25.88;59.97;94513.75;5116021;28;20442;-79
2022/06/23 05:10:06;;;;;;;12.77;9.33;;;;;;;26.10;58.84;94511.31;5115851;28;21046;-80
2022/06/23 05:12:38;;;;;;;11.53;8.90;;;;;;;26.42;57.48;94506.38;5115582;28;20440;-79
2022/06/23 05:15:14;;;;;;;16.37;10.27;;;;;;;26.61;57.40;94507.84;5115554;28;20941;-79
2022/06/23 05:17:46;;;;;;;14.30;9.97;;;;;;;26.75;57.11;94506.50;5080070;28;20436;-79
2022/06/23 05:20:24;;;;;;;10.80;9.70;;;;;;;26.92;56.92;94508.44;5115296;28;20447;-80
2022/06/23 05:22:52;;;;;;;43.20;11.70;;;;;;;27.18;57.42;94505.19;5115534;28;21008;-80
2022/06/23 05:25:33;;;;;;;14.63;9.03;;;;;;;27.42;55.62;94508.56;5115028;28;20435;-79
2022/06/23 05:28:05;;;;;;;18.67;9.60;;;;;;;27.37;54.98;94522.78;5115617;28;20439;-80
2022/06/23 05:30:38;;;;;;;21.73;10.10;;;;;;;27.20;55.50;94515.75;5115425;28;20439;-80
2022/06/23 05:33:14;;;;;;;17.90;10.40;;;;;;;26.74;57.66;94494.09;5113435;28;20775;-79
2022/06/23 05:35:46;;;;;;;11.60;9.40;;;;;;;25.81;59.90;94492.38;5115264;28;20447;-80
2022/06/23 05:38:25;;;;;;;12.73;9.20;;;;;;;25.74;60.82;94497.06;5115266;27;20451;-80
2022/06/23 05:40:55;;;;;;;17.40;11.50;;;;;;;25.65;61.39;94517.22;5115238;28;20448;-79
2022/06/23 05:43:23;;;;;;;15.80;10.03;;;;;;;25.53;61.70;94519.06;5114751;28;20483;-80
2022/06/23 05:45:54;;;;;;;13.03;9.67;;;;;;;25.26;62.78;94503.38;5115191;28;20451;-79
2022/06/23 05:48:30;;;;;;;16.60;10.87;;;;;;;24.72;63.23;94501.63;5114801;28;20446;-80
2022/06/23 05:51:02;;;;;;;16.87;11.50;;;;;;;24.40;65.72;94514.41;5114722;28;20439;-79
2022/06/23 05:53:35;;;;;;;24.13;10.77;;;;;;;24.15;67.28;94530.53;5114820;28;20450;-79
2022/06/23 05:56:07;;;;;;;16.13;10.77;;;;;;;23.81;68.47;94552.53;5115150;28;20443;-79
2022/06/23 05:58:41;;;;;;;19.07;10.80;;;;;;;23.12;71.54;94578.31;5114583;28;20446;-79
2022/06/23 06:01:19;;;;;;;22.43;13.97;;;;;;;22.56;73.26;94756.34;5115077;28;20455;-79
2022/06/23 06:03:54;;;;;;;27.70;14.57;;;;;;;21.90;75.42;94889.84;5114332;28;20475;-79
2022/06/23 06:06:20;;;;;;;29.87;13.80;;;;;;;20.93;86.76;94855.19;5115068;28;20428;-79
2022/06/23 06:53:22;;;;;;;14.53;10.27;;;;;;;19.67;100.00;94658.78;5104885;27;20550;-76
2022/06/23 06:55:52;;;;;;;11.63;9.17;;;;;;;19.69;100.00;94648.78;5104131;28;20441;-76
2022/06/23 06:58:27;;;;;;;9.97;8.37;;;;;;;19.72;100.00;94635.06;5089338;28;20436;-76
2022/06/23 07:01:00;;;;;;;13.70;9.17;;;;;;;19.75;100.00;94642.66;5089728;28;20480;-76
2022/06/23 07:03:27;;;;;;;16.33;10.00;;;;;;;19.86;100.00;94645.81;5054454;28;20627;-76
2022/06/23 07:05:58;;;;;;;15.80;13.00;;;;;;;19.89;100.00;94648.09;5089940;28;20814;-76
2022/06/23 07:08:32;;;;;;;15.70;10.63;;;;;;;19.88;100.00;94641.13;5090166;28;20551;-76
2022/06/23 07:11:07;;;;;;;11.03;8.33;;;;;;;19.91;100.00;94644.22;5089637;28;20530;-76
2022/06/23 07:13:39;;;;;;;10.73;7.90;;;;;;;20.03;100.00;94633.88;5089757;28;20451;-76
2022/06/23 07:16:13;;;;;;;18.30;9.30;;;;;;;20.07;100.00;94645.78;5089666;28;20460;-77
2022/06/23 07:18:47;;;;;;;12.20;9.83;;;;;;;20.20;100.00;94637.03;5089488;28;20457;-77
2022/06/23 07:21:20;;;;;;;14.97;13.47;;;;;;;20.43;100.00;94648.28;5089270;28;20480;-77
2022/06/23 07:23:53;;;;;;;27.37;20.60;;;;;;;20.65;98.95;94652.53;5089460;28;20945;-77
2022/06/23 07:26:43;;;;;;;12.80;9.67;;;;;;;20.89;97.72;94645.88;5089459;28;20448;-77
2022/06/23 07:29:20;;;;;;;10.40;9.30;;;;;;;21.09;97.86;94651.25;5089576;28;20455;-76
2022/06/23 07:31:56;;;;;;;9.90;8.67;;;;;;;21.30;97.42;94648.47;5089128;28;20812;-77
2022/06/23 07:34:24;;;;;;;11.93;8.07;;;;;;;21.20;95.63;94668.56;5089317;28;20439;-77
2022/06/23 07:36:56;;;;;;;11.23;8.10;;;;;;;21.33;97.73;94687.28;5089170;28;20437;-77
2022/06/23 07:39:29;;;;;;;8.67;7.87;;;;;;;21.38;97.55;94682.16;5089233;28;20966;-77
2022/06/23 07:42:02;;;;;;;10.83;7.70;;;;;;;21.34;97.65;94678.25;5089461;28;20491;-76
2022/06/23 07:44:35;;;;;;;10.17;7.70;;;;;;;21.32;95.47;94680.31;5089502;28;20807;-77
2022/06/23 07:47:02;;;;;;;9.70;7.23;;;;;;;21.71;95.95;94686.78;5089186;28;20437;-76
2022/06/23 07:49:32;;;;;;;9.07;7.70;;;;;;;22.05;94.39;94688.47;5089257;28;20432;-77
2022/06/23 07:51:59;;;;;;;10.93;7.70;;;;;;;22.11;94.33;94691.16;5088671;28;20969;-77
2022/06/23 07:54:29;;;;;;;11.90;7.63;;;;;;;22.36;94.46;94699.34;5074750;28;20437;-77
2022/06/23 07:56:56;;;;;;;9.97;8.00;;;;;;;22.53;93.73;94703.22;5075238;28;20445;-77
2022/06/23 07:59:29;;;;;;;17.07;9.70;;;;;;;22.66;92.21;94713.09;5075437;28;20520;-77
2022/06/23 08:02:02;;;;;;;12.20;7.57;;;;;;;22.85;92.39;94709.59;5075213;28;20481;-77
2022/06/23 08:04:35;;;;;;;10.90;7.63;;;;;;;23.08;90.30;94708.28;5075271;28;20452;-77
2022/06/23 08:07:05;;;;;;;9.20;7.90;;;;;;;22.92;88.10;94706.09;5075003;28;20950;-77
2022/06/23 08:09:39;;;;;;;9.43;6.00;;;;;;;22.37;81.82;94719.72;5075286;28;20477;-77
2022/06/23 08:17:44;;;;;;;9.67;6.73;;;;;;;22.53;87.52;94707.75;5075016;28;20441;-77
2022/06/23 08:20:14;;;;;;;17.30;8.20;;;;;;;22.50;84.07;94719.69;5074707;28;20927;-77
2022/06/23 08:22:42;;;;;;;12.27;7.70;;;;;;;22.66;86.21;94714.94;5074983;28;20858;-77
2022/06/23 08:25:11;;;;;;;11.83;7.17;;;;;;;22.60;83.98;94697.06;5075115;28;20467;-77
2022/06/23 08:27:43;;;;;;;10.37;7.80;;;;;;;22.46;84.93;94690.91;5074767;28;20480;-77
2022/06/23 08:30:14;;;;;;;8.47;7.37;;;;;;;22.62;85.51;94687.81;5075085;28;20437;-77
2022/06/23 08:32:44;;;;;;;11.97;8.10;;;;;;;22.93;85.06;94692.50;5056080;28;20483;-76
2022/06/23 08:35:21;;;;;;;12.07;7.70;;;;;;;22.89;84.14;94691.28;5074678;28;20453;-77
2022/06/23 08:37:53;;;;;;;14.03;7.80;;;;;;;22.57;81.89;94690.28;5074655;28;20536;-77
2022/06/23 08:40:30;;;;;;;10.70;7.90;;;;;;;22.92;84.02;94682.00;5039342;28;20803;-77
2022/06/23 08:43:10;;;;;;;8.10;7.00;;;;;;;23.26;82.28;94680.81;5074656;28;20488;-77
2022/06/23 08:45:43;;;;;;;7.70;7.00;;;;;;;23.51;81.37;94688.94;5074684;28;20532;-77
2022/06/23 08:48:20;;;;;;;7.67;6.97;;;;;;;23.66;81.36;94676.91;5040469;28;20803;-77
2022/06/23 08:50:54;;;;;;;8.60;7.40;;;;;;;23.96;83.36;94677.13;5074318;28;20445;-77
2022/06/23 08:53:29;;;;;;;8.00;7.13;;;;;;;24.09;82.27;94671.66;5074604;28;20472;-77
2022/06/23 08:56:07;;;;;;;11.17;8.47;;;;;;;24.33;79.74;94670.06;5038768;28;20444;-77
2022/06/23 08:58:40;;;;;;;10.10;6.57;;;;;;;24.41;76.75;94674.31;5039236;28;20433;-77
2022/06/23 09:01:13;;;;;;;8.30;6.20;;;;;;;24.57;78.21;94679.09;5073955;28;20460;-77
2022/06/23 09:03:48;;;;;;;8.80;6.90;;;;;;;24.75;76.12;94675.63;5074005;28;20445;-77
2022/06/23 09:06:24;;;;;;;9.37;6.80;;;;;;;24.84;77.32;94665.41;5073516;28;20450;-77
2022/06/23 09:09:01;;;;;;;10.17;6.10;;;;;;;24.86;76.08;94677.56;5041033;28;20453;-77
2022/06/23 09:11:40;;;;;;;8.90;7.50;;;;;;;24.76;74.08;94673.75;5073917;28;20461;-77
2022/06/23 09:14:54;;;;;;;11.63;6.90;;;;;;;24.87;74.64;94673.03;5074091;28;20449;-77
2022/06/23 09:17:44;;;;;;;8.20;6.67;;;;;;;24.68;74.50;94664.16;4992347;28;20480;-76
2022/06/23 09:20:40;;;;;;;8.10;6.50;;;;;;;24.27;76.14;94659.34;4934446;29;20545;-77
2022/06/23 09:23:27;;;;;;;10.90;6.77;;;;;;;24.35;75.18;94657.25;4934331;29;21029;-77
2022/06/23 09:26:01;;;;;;;11.90;6.90;;;;;;;24.56;78.13;94647.94;4902543;29;20439;-77
2022/06/23 09:28:43;;;;;;;11.07;7.23;;;;;;;24.57;77.89;94643.41;4934453;29;20447;-77
2022/06/23 09:31:20;;;;;;;12.03;7.30;;;;;;;24.42;78.40;94643.75;4934185;29;20518;-77
2022/06/23 09:34:07;;;;;;;8.87;8.00;;;;;;;24.46;78.63;94650.31;4934125;29;20458;-76
2022/06/23 09:36:48;;;;;;;10.53;7.10;;;;;;;24.54;78.42;94641.97;4934242;29;20581;-76
2022/06/23 09:39:41;;;;;;;14.13;8.07;;;;;;;24.42;76.94;94638.41;4934199;29;20766;-77
2022/06/23 09:42:34;;;;;;;10.27;7.00;;;;;;;24.54;79.37;94631.25;4934033;29;20483;-77
2022/06/23 09:45:22;;;;;;;10.63;8.03;;;;;;;24.73;81.63;94624.03;4934190;29;20448;-77
2022/06/23 09:48:15;;;;;;;13.37;7.50;;;;;;;24.86;79.56;94623.03;4934338;29;20451;-77
2022/06/23 09:51:10;;;;;;;8.40;7.60;;;;;;;24.40;79.35;94627.91;4895883;29;20465;-77
2022/06/23 09:53:55;;;;;;;12.50;8.27;;;;;;;24.43;77.04;94628.50;4917068;29;20447;-77
2022/06/23 09:56:38;;;;;;;9.83;8.23;;;;;;;24.44;76.09;94630.94;4955864;28;20447;-77
2022/06/23 09:59:25;;;;;;;14.47;8.10;;;;;;;24.61;77.55;94623.97;5031300;28;20897;-77
2022/06/23 10:01:58;;;;;;;10.57;7.20;;;;;;;24.80;79.15;94623.94;5030854;28;20992;-77
2022/06/23 10:04:54;;;;;;;13.10;7.47;;;;;;;24.65;77.99;94617.13;5031179;28;20438;-77
2022/06/23 10:07:44;;;;;;;9.30;7.93;;;;;;;24.54;78.24;94620.50;4952822;29;20458;-77
2022/06/23 10:10:21;;;;;;;7.90;7.20;;;;;;;24.74;81.08;94608.75;4904969;29;20441;-77
2022/06/23 10:13:25;;;;;;;11.03;7.67;;;;;;;24.64;77.81;94623.53;4952808;29;20844;-78
2022/06/23 10:16:10;;;;;;;8.70;7.80;;;;;;;24.43;76.83;94618.56;4904729;29;20444;-77
2022/06/23 10:18:58;;;;;;;11.00;7.57;;;;;;;24.45;78.54;94621.03;4952852;29;20457;-77
2022/06/23 10:21:38;;;;;;;15.90;7.90;;;;;;;24.62;77.36;94622.94;4952748;29;20821;-77
2022/06/23 10:24:39;;;;;;;9.00;7.30;;;;;;;24.53;77.65;94623.41;4952683;29;20447;-77
2022/06/23 10:27:19;;;;;;;9.03;7.47;;;;;;;24.56;81.66;94613.06;4958771;28;20456;-77
2022/06/23 10:30:05;;;;;;;8.60;7.10;;;;;;;24.68;78.70;94607.78;4991159;28;20452;-76
2022/06/23 10:33:06;;;;;;;8.03;7.20;;;;;;;24.78;76.49;94609.94;4991151;28;21018;-77
2022/06/23 10:35:49;;;;;;;9.10;6.70;;;;;;;25.02;78.01;94593.78;4933581;29;20454;-77
2022/06/23 10:38:33;;;;;;;13.83;7.10;;;;;;;24.70;75.16;94593.09;4901642;29;20451;-76
2022/06/23 10:41:23;;;;;;;11.90;7.00;;;;;;;24.77;77.79;94584.16;4933344;29;20483;-76
2022/06/23 10:43:58;;;;;;;9.67;8.10;;;;;;;24.77;77.30;94584.97;4958358;28;20866;-77
2022/06/23 10:46:32;;;;;;;8.67;7.70;;;;;;;25.12;77.67;94584.34;5031888;28;20434;-77
2022/06/23 10:49:38;;;;;;;10.53;7.33;;;;;;;25.43;81.06;94576.03;5030235;28;20447;-77
2022/06/23 10:52:34;;;;;;;9.07;7.93;;;;;;;25.59;72.91;94578.09;4971360;28;20524;-77
2022/06/23 10:55:28;;;;;;;8.70;7.90;;;;;;;25.38;72.57;94583.97;4971555;28;20903;-77
2022/06/23 10:58:13;;;;;;;13.50;6.43;;;;;;;25.55;75.02;94571.53;4971562;28;20454;-77
2022/06/23 11:00:53;;;;;;;11.07;9.13;;;;;;;25.80;73.83;94582.13;4971545;28;20865;-77
2022/06/23 11:03:40;;;;;;;9.07;7.90;;;;;;;25.88;74.33;94573.72;4971281;28;20836;-77
2022/06/23 11:06:24;;;;;;;12.13;8.20;;;;;;;25.80;72.32;94579.44;4971381;28;20449;-77
2022/06/23 11:09:25;;;;;;;7.40;6.67;;;;;;;25.97;72.84;94581.44;4971463;28;20907;-77
2022/06/23 11:12:06;;;;;;;9.30;7.50;;;;;;;26.01;70.57;94577.22;4999361;28;20448;-77
2022/06/23 11:14:45;;;;;;;9.50;7.57;;;;;;;26.16;71.51;94569.53;4977605;28;20450;-77
2022/06/23 11:17:22;;;;;;;14.60;8.00;;;;;;;26.17;73.79;94566.59;5010449;28;20444;-77
2022/06/23 11:20:16;;;;;;;12.50;7.57;;;;;;;26.18;72.34;94559.34;5010308;28;20450;-77
2022/06/23 11:22:48;;;;;;;15.73;8.00;;;;;;;26.30;70.51;94573.59;5009536;28;20492;-77
2022/06/23 11:25:41;;;;;;;11.70;7.57;;;;;;;26.23;70.03;94575.59;5010523;28;20435;-77
2022/06/23 11:28:17;;;;;;;14.33;8.83;;;;;;;26.09;69.08;94580.41;5034348;28;20445;-77
2022/06/23 11:30:56;;;;;;;12.17;8.00;;;;;;;26.18;71.09;94567.41;5076030;28;20449;-77
2022/06/23 11:33:42;;;;;;;11.47;8.70;;;;;;;26.21;71.63;94572.31;5075730;28;20456;-77
2022/06/23 11:36:24;;;;;;;14.97;8.73;;;;;;;26.27;73.77;94584.03;5076152;28;20847;-77
2022/06/23 11:39:19;;;;;;;10.47;8.47;;;;;;;26.21;71.64;94588.47;5076043;28;20514;-77
2022/06/23 11:42:02;;;;;;;14.30;7.97;;;;;;;25.94;73.02;94588.09;5040333;28;20433;-77
2022/06/23 11:44:49;;;;;;;9.63;8.73;;;;;;;25.93;72.91;94584.59;5075563;28;20456;-77
2022/06/23 11:47:24;;;;;;;14.10;8.53;;;;;;;25.75;74.48;94581.19;5075505;28;20978;-77
2022/06/23 11:50:02;;;;;;;9.70;8.70;;;;;;;25.83;73.31;94589.75;5075475;28;20487;-77
2022/06/23 11:52:49;;;;;;;10.30;8.30;;;;;;;26.02;73.96;94578.88;5075629;28;20476;-77
2022/06/23 11:55:35;;;;;;;12.83;8.53;;;;;;;26.22;73.22;94585.53;5075623;28;20452;-77
2022/06/23 11:58:22;;;;;;;10.53;9.33;;;;;;;26.34;73.25;94574.81;5075423;28;20448;-77
2022/06/23 12:01:13;;;;;;;20.47;11.40;;;;;;;26.32;71.17;94584.97;5075679;28;20441;-77
2022/06/23 12:04:04;;;;;;;15.90;9.00;;;;;;;26.52;72.10;94587.31;5075172;28;20491;-77
2022/06/23 12:06:40;;;;;;;14.07;8.33;;;;;;;26.73;72.17;94591.25;5075259;28;20452;-77
2022/06/23 12:09:18;;;;;;;13.10;7.60;;;;;;;26.79;64.22;94595.69;5041932;28;20449;-77
2022/06/23 12:11:45;;;;;;;17.53;7.63;;;;;;;26.80;66.65;94583.88;5075127;28;20448;-77
2022/06/23 12:14:15;;;;;;;10.10;7.20;;;;;;;26.88;64.89;94588.06;5075275;28;20480;-77
2022/06/23 12:16:49;;;;;;;9.07;7.03;;;;;;;26.79;64.72;94585.75;5075085;28;20471;-77
2022/06/23 12:19:20;;;;;;;12.67;7.40;;;;;;;26.76;65.62;94585.41;5074787;28;20452;-77
2022/06/23 12:21:55;;;;;;;9.20;6.47;;;;;;;26.79;63.79;94574.16;5040065;28;20452;-77
2022/06/23 12:24:30;;;;;;;13.83;7.47;;;;;;;26.78;64.71;94577.91;5074896;28;20998;-78
2022/06/23 12:27:05;;;;;;;16.73;7.63;;;;;;;26.65;65.28;94579.00;5074988;28;20957;-77
2022/06/23 12:29:45;;;;;;;19.40;7.67;;;;;;;26.62;65.54;94573.28;5074591;28;20452;-76
2022/06/23 12:32:18;;;;;;;14.70;6.83;;;;;;;26.69;65.19;94568.56;5074915;28;20453;-77
2022/06/23 12:34:56;;;;;;;17.17;7.73;;;;;;;26.71;66.08;94577.22;5074729;28;20448;-77
2022/06/23 12:37:31;;;;;;;12.70;7.60;;;;;;;26.67;63.59;94565.31;5074819;28;20442;-77
2022/06/23 12:40:05;;;;;;;14.73;7.97;;;;;;;26.56;62.58;94564.25;4992254;28;20538;-76
2022/06/23 12:42:37;;;;;;;20.87;8.47;;;;;;;26.48;64.36;94567.31;5039528;28;20483;-77
2022/06/23 12:45:39;;;;;;;14.50;8.27;;;;;;;26.51;65.50;94564.16;5074689;28;20460;-77
2022/06/23 12:48:30;;;;;;;14.00;8.10;;;;;;;26.49;64.52;94559.00;4953819;28;20454;-77
2022/06/23 12:51:07;;;;;;;15.10;8.97;;;;;;;26.41;64.44;94558.56;4953744;28;20455;-77
2022/06/23 12:53:50;;;;;;;13.67;8.80;;;;;;;26.35;64.74;94554.94;4954160;29;20839;-76
2022/06/23 12:56:36;;;;;;;15.27;9.30;;;;;;;26.41;65.44;94556.69;4954125;28;20465;-76
2022/06/23 12:59:08;;;;;;;17.33;8.93;;;;;;;26.37;64.48;94555.53;4954121;28;20541;-77
2022/06/23 13:01:41;;;;;;;17.60;9.43;;;;;;;26.29;64.19;94537.00;4954060;29;20447;-76
2022/06/23 13:04:17;;;;;;;16.10;9.57;;;;;;;26.34;65.65;94552.50;4953838;29;20542;-77
2022/06/23 13:06:50;;;;;;;22.37;9.10;;;;;;;26.39;65.99;94553.41;4953925;29;20546;-77
2022/06/23 13:09:27;;;;;;;14.40;8.57;;;;;;;26.42;67.14;94558.31;4953846;28;20530;-77